Birney, Montana
Current Conditions -  °F | °C
As of 7:53 PM on Sunday 21 Dec 2014 (Local Time) from KSHR Reporting Station
Overcast Overcast  
Wind Chill: 30°   Ceiling: 7000
Heat Index: 41°   Visibility: 10mi
Dew Point: 23°   Wind: 31mph
Humidity: 49%   Direction: 330°NNW
Pressure: 29.58"   Gusts: 38mph
Location:  45.32°N, 106.51°W
Report Text: KSHR 220253Z AUTO 33027G33KT 10SM BKN070 OVC085 05/M05 A2958 RMK AO2 PK WND 31036/0234 SLP040 T00501050 51023
Loading
Personal Weather Stations






























Interactive Weather Map New forecast layout! Learn more

10-Day Weather Forecast

Advertisements
Track Severe Weather on mobile